sensor_id;sensor_type;location;lat;lon;timestamp;pressure;altitude;pressure_sealevel;temperature;humidity
44359;BME280;30077;52.474;13.326;2023-02-18T00:03:10;100839.69;;;6.99;91.16
44359;BME280;30077;52.474;13.326;2023-02-18T00:08:10;100845.84;;;7.02;91.21
44359;BME280;30077;52.474;13.326;2023-02-18T00:13:10;100852.53;;;6.84;92.26
44359;BME280;30077;52.474;13.326;2023-02-18T00:18:10;100854.38;;;6.80;93.43
44359;BME280;30077;52.474;13.326;2023-02-18T00:23:10;100855.38;;;6.76;93.56
44359;BME280;30077;52.474;13.326;2023-02-18T00:28:10;100871.31;;;6.74;93.87
44359;BME280;30077;52.474;13.326;2023-02-18T00:33:11;100863.69;;;6.61;94.93
44359;BME280;30077;52.474;13.326;2023-02-18T00:38:11;100869.31;;;6.48;95.58
44359;BME280;30077;52.474;13.326;2023-02-18T00:43:11;100884.66;;;6.36;95.77
44359;BME280;30077;52.474;13.326;2023-02-18T00:48:11;100876.75;;;6.34;95.89
44359;BME280;30077;52.474;13.326;2023-02-18T00:53:11;100892.81;;;6.26;96.29
44359;BME280;30077;52.474;13.326;2023-02-18T00:58:13;100889.38;;;6.23;96.49
44359;BME280;30077;52.474;13.326;2023-02-18T01:03:14;100888.72;;;6.13;97.32
44359;BME280;30077;52.474;13.326;2023-02-18T01:08:14;100884.44;;;6.08;96.89
44359;BME280;30077;52.474;13.326;2023-02-18T01:13:15;100896.75;;;6.10;96.72
44359;BME280;30077;52.474;13.326;2023-02-18T01:18:17;100887.13;;;6.06;96.91
44359;BME280;30077;52.474;13.326;2023-02-18T01:23:17;100882.72;;;6.05;97.00
44359;BME280;30077;52.474;13.326;2023-02-18T01:28:17;100887.22;;;6.03;96.39
44359;BME280;30077;52.474;13.326;2023-02-18T01:33:20;100880.16;;;6.02;96.62
44359;BME280;30077;52.474;13.326;2023-02-18T01:38:21;100889.94;;;5.98;96.83
44359;BME280;30077;52.474;13.326;2023-02-18T01:43:22;100881.97;;;6.00;96.81
44359;BME280;30077;52.474;13.326;2023-02-18T01:48:33;100881.75;;;6.09;96.30
44359;BME280;30077;52.474;13.326;2023-02-18T01:53:44;100882.84;;;6.00;97.01
44359;BME280;30077;52.474;13.326;2023-02-18T01:58:46;100886.41;;;5.99;97.46
44359;BME280;30077;52.474;13.326;2023-02-18T02:03:46;100887.22;;;6.03;97.43
44359;BME280;30077;52.474;13.326;2023-02-18T02:08:47;100876.44;;;6.09;96.62
44359;BME280;30077;52.474;13.326;2023-02-18T02:13:53;100887.22;;;6.03;97.38
44359;BME280;30077;52.474;13.326;2023-02-18T02:34:27;100894.44;;;5.95;97.33
44359;BME280;30077;52.474;13.326;2023-02-18T02:44:31;100891.00;;;5.90;97.36
44359;BME280;30077;52.474;13.326;2023-02-18T02:49:48;100893.81;;;5.80;97.71
44359;BME280;30077;52.474;13.326;2023-02-18T02:54:52;100889.38;;;5.83;96.89
44359;BME280;30077;52.474;13.326;2023-02-18T02:59:54;100893.13;;;5.72;97.20
44359;BME280;30077;52.474;13.326;2023-02-18T03:05:14;100898.47;;;5.71;97.67
44359;BME280;30077;52.474;13.326;2023-02-18T03:10:29;100895.06;;;5.64;97.42
44359;BME280;30077;52.474;13.326;2023-02-18T03:20:38;100905.72;;;5.61;96.63
44359;BME280;30077;52.474;13.326;2023-02-18T03:25:39;100905.56;;;5.69;95.49
44359;BME280;30077;52.474;13.326;2023-02-18T03:30:46;100901.19;;;5.66;95.09
44359;BME280;30077;52.474;13.326;2023-02-18T03:35:48;100907.16;;;5.77;94.41
44359;BME280;30077;52.474;13.326;2023-02-18T03:40:49;100901.88;;;5.77;93.68
44359;BME280;30077;52.474;13.326;2023-02-18T03:45:49;100885.75;;;5.87;92.87
44359;BME280;30077;52.474;13.326;2023-02-18T03:50:49;100896.47;;;5.80;93.21
44359;BME280;30077;52.474;13.326;2023-02-18T03:55:49;100895.66;;;5.77;92.74
44359;BME280;30077;52.474;13.326;2023-02-18T04:00:50;100891.41;;;5.71;92.83
44359;BME280;30077;52.474;13.326;2023-02-18T04:05:50;100902.03;;;5.68;93.04
44359;BME280;30077;52.474;13.326;2023-02-18T04:10:50;100890.59;;;5.68;93.27
44359;BME280;30077;52.474;13.326;2023-02-18T04:15:50;100891.56;;;5.64;93.05
44359;BME280;30077;52.474;13.326;2023-02-18T04:20:51;100885.53;;;5.57;94.00
44359;BME280;30077;52.474;13.326;2023-02-18T04:25:52;100899.72;;;5.53;93.64
44359;BME280;30077;52.474;13.326;2023-02-18T04:30:52;100899.78;;;5.50;94.11
44359;BME280;30077;52.474;13.326;2023-02-18T04:35:52;100905.19;;;5.44;94.41
44359;BME280;30077;52.474;13.326;2023-02-18T04:40:53;100915.91;;;5.38;94.58
44359;BME280;30077;52.474;13.326;2023-02-18T04:45:53;100905.34;;;5.38;94.95
44359;BME280;30077;52.474;13.326;2023-02-18T04:50:53;100911.56;;;5.34;95.49
44359;BME280;30077;52.474;13.326;2023-02-18T04:55:53;100921.25;;;5.35;95.02
44359;BME280;30077;52.474;13.326;2023-02-18T05:00:57;100915.00;;;5.39;94.71
44359;BME280;30077;52.474;13.326;2023-02-18T05:05:57;100924.78;;;5.34;95.50
44359;BME280;30077;52.474;13.326;2023-02-18T05:10:57;100918.41;;;5.45;94.51
44359;BME280;30077;52.474;13.326;2023-02-18T05:15:57;100911.13;;;5.55;94.45
44359;BME280;30077;52.474;13.326;2023-02-18T05:20:57;100903.94;;;5.63;93.86
44359;BME280;30077;52.474;13.326;2023-02-18T05:25:58;100909.00;;;5.72;93.02
44359;BME280;30077;52.474;13.326;2023-02-18T05:30:58;100896.41;;;5.84;92.12
44359;BME280;30077;52.474;13.326;2023-02-18T05:35:58;100887.50;;;5.88;91.87
44359;BME280;30077;52.474;13.326;2023-02-18T05:40:58;100900.72;;;5.89;91.18
44359;BME280;30077;52.474;13.326;2023-02-18T05:45:59;100894.38;;;5.98;90.60
44359;BME280;30077;52.474;13.326;2023-02-18T05:50:59;100885.38;;;6.07;90.47
44359;BME280;30077;52.474;13.326;2023-02-18T05:56:00;100887.03;;;6.09;89.76
44359;BME280;30077;52.474;13.326;2023-02-18T06:01:00;100883.34;;;6.16;88.99
44359;BME280;30077;52.474;13.326;2023-02-18T06:06:01;100887.81;;;6.14;89.40
44359;BME280;30077;52.474;13.326;2023-02-18T06:11:01;100902.69;;;6.21;88.90
44359;BME280;30077;52.474;13.326;2023-02-18T06:16:03;100892.97;;;6.20;89.39
44359;BME280;30077;52.474;13.326;2023-02-18T06:21:03;100881.63;;;6.15;89.68
44359;BME280;30077;52.474;13.326;2023-02-18T06:26:03;100897.56;;;6.12;90.17
44359;BME280;30077;52.474;13.326;2023-02-18T06:31:05;100898.19;;;6.23;90.14
44359;BME280;30077;52.474;13.326;2023-02-18T06:36:06;100893.56;;;6.32;90.34
44359;BME280;30077;52.474;13.326;2023-02-18T06:41:06;100896.16;;;6.35;90.16
44359;BME280;30077;52.474;13.326;2023-02-18T06:46:07;100895.41;;;6.30;90.27
44359;BME280;30077;52.474;13.326;2023-02-18T06:51:07;100885.41;;;6.41;89.91
44359;BME280;30077;52.474;13.326;2023-02-18T06:56:07;100879.13;;;6.45;89.64
44359;BME280;30077;52.474;13.326;2023-02-18T07:01:08;100885.22;;;6.48;89.47
44359;BME280;30077;52.474;13.326;2023-02-18T07:06:08;100887.63;;;6.59;88.53
44359;BME280;30077;52.474;13.326;2023-02-18T07:11:08;100870.84;;;6.57;88.47
44359;BME280;30077;52.474;13.326;2023-02-18T07:16:08;100867.13;;;6.66;87.88
44359;BME280;30077;52.474;13.326;2023-02-18T07:21:08;100875.75;;;6.74;88.28
44359;BME280;30077;52.474;13.326;2023-02-18T07:26:10;100863.25;;;6.79;88.79
44359;BME280;30077;52.474;13.326;2023-02-18T07:31:10;100863.28;;;6.78;89.57
44359;BME280;30077;52.474;13.326;2023-02-18T07:36:11;100869.34;;;6.83;91.40
44359;BME280;30077;52.474;13.326;2023-02-18T07:41:20;100851.44;;;6.91;91.60
44359;BME280;30077;52.474;13.326;2023-02-18T07:46:21;100839.97;;;6.90;93.04
44359;BME280;30077;52.474;13.326;2023-02-18T07:51:21;100829.16;;;6.98;93.64
44359;BME280;30077;52.474;13.326;2023-02-18T07:56:21;100838.69;;;7.05;95.69
44359;BME280;30077;52.474;13.326;2023-02-18T08:01:23;100834.56;;;6.93;97.90
44359;BME280;30077;52.474;13.326;2023-02-18T08:06:36;100832.69;;;6.97;99.45
44359;BME280;30077;52.474;13.326;2023-02-18T08:11:37;100821.28;;;6.95;99.51
44359;BME280;30077;52.474;13.326;2023-02-18T08:16:37;100813.34;;;6.93;99.10
44359;BME280;30077;52.474;13.326;2023-02-18T08:21:39;100803.88;;;6.85;100.00
44359;BME280;30077;52.474;13.326;2023-02-18T08:26:39;100795.75;;;6.91;100.00
44359;BME280;30077;52.474;13.326;2023-02-18T08:31:39;100792.03;;;6.96;100.00
44359;BME280;30077;52.474;13.326;2023-02-18T08:36:40;100785.22;;;6.88;100.00
44359;BME280;30077;52.474;13.326;2023-02-18T08:41:40;100773.00;;;6.82;100.00
44359;BME280;30077;52.474;13.326;2023-02-18T08:46:40;100773.53;;;6.95;100.00
44359;BME280;30077;52.474;13.326;2023-02-18T08:51:40;100761.34;;;6.88;100.00
44359;BME280;30077;52.474;13.326;2023-02-18T08:56:40;100767.09;;;6.72;100.00
44359;BME280;30077;52.474;13.326;2023-02-18T09:01:41;100756.66;;;6.66;100.00
44359;BME280;30077;52.474;13.326;2023-02-18T09:06:41;100752.28;;;6.64;100.00
44359;BME280;30077;52.474;13.326;2023-02-18T09:11:41;100732.63;;;6.72;100.00
44359;BME280;30077;52.474;13.326;2023-02-18T09:16:42;100711.97;;;6.84;100.00
44359;BME280;30077;52.474;13.326;2023-02-18T09:21:42;100710.47;;;7.05;100.00
44359;BME280;30077;52.474;13.326;2023-02-18T09:26:42;100698.78;;;7.10;100.00
44359;BME280;30077;52.474;13.326;2023-02-18T09:31:42;100692.16;;;7.25;100.00
44359;BME280;30077;52.474;13.326;2023-02-18T09:36:44;100697.44;;;7.27;100.00
44359;BME280;30077;52.474;13.326;2023-02-18T09:41:45;100673.63;;;7.23;100.00
44359;BME280;30077;52.474;13.326;2023-02-18T09:46:51;100664.06;;;7.18;100.00
44359;BME280;30077;52.474;13.326;2023-02-18T09:51:53;100648.91;;;7.23;100.00
44359;BME280;30077;52.474;13.326;2023-02-18T09:56:54;100616.91;;;7.28;100.00
44359;BME280;30077;52.474;13.326;2023-02-18T10:01:54;100629.06;;;7.35;100.00
44359;BME280;30077;52.474;13.326;2023-02-18T10:06:56;100621.19;;;7.32;100.00
44359;BME280;30077;52.474;13.326;2023-02-18T10:11:59;100615.88;;;7.32;100.00
44359;BME280;30077;52.474;13.326;2023-02-18T10:17:01;100622.22;;;7.28;100.00
44359;BME280;30077;52.474;13.326;2023-02-18T10:22:03;100595.94;;;7.18;100.00
44359;BME280;30077;52.474;13.326;2023-02-18T10:27:05;100568.47;;;7.21;100.00
44359;BME280;30077;52.474;13.326;2023-02-18T10:47:47;100489.44;;;7.81;100.00
44359;BME280;30077;52.474;13.326;2023-02-18T10:52:51;100477.00;;;7.81;100.00
44359;BME280;30077;52.474;13.326;2023-02-18T10:57:54;100471.06;;;7.75;100.00
44359;BME280;30077;52.474;13.326;2023-02-18T11:03:15;100454.19;;;7.76;100.00
44359;BME280;30077;52.474;13.326;2023-02-18T11:08:17;100423.59;;;7.89;100.00
44359;BME280;30077;52.474;13.326;2023-02-18T11:13:29;100397.94;;;7.88;100.00
44359;BME280;30077;52.474;13.326;2023-02-18T11:18:40;100377.75;;;7.84;100.00
44359;BME280;30077;52.474;13.326;2023-02-18T11:23:45;100382.38;;;7.79;100.00
44359;BME280;30077;52.474;13.326;2023-02-18T11:28:47;100365.25;;;7.64;100.00
44359;BME280;30077;52.474;13.326;2023-02-18T11:33:49;100348.69;;;7.57;100.00
44359;BME280;30077;52.474;13.326;2023-02-18T11:43:53;100329.03;;;7.61;100.00
44359;BME280;30077;52.474;13.326;2023-02-18T11:48:54;100303.75;;;7.75;100.00
44359;BME280;30077;52.474;13.326;2023-02-18T11:54:04;100289.50;;;7.99;100.00
44359;BME280;30077;52.474;13.326;2023-02-18T11:59:05;100271.94;;;7.95;100.00
44359;BME280;30077;52.474;13.326;2023-02-18T12:04:07;100256.94;;;7.94;100.00
44359;BME280;30077;52.474;13.326;2023-02-18T12:09:24;100245.53;;;7.92;100.00
44359;BME280;30077;52.474;13.326;2023-02-18T12:14:26;100230.91;;;8.02;100.00
44359;BME280;30077;52.474;13.326;2023-02-18T12:24:56;100225.47;;;8.05;100.00
44359;BME280;30077;52.474;13.326;2023-02-18T12:40:39;100193.00;;;8.41;100.00
44359;BME280;30077;52.474;13.326;2023-02-18T12:45:58;100182.13;;;8.66;100.00
44359;BME280;30077;52.474;13.326;2023-02-18T12:51:18;100184.91;;;9.02;100.00
44359;BME280;30077;52.474;13.326;2023-02-18T13:01:44;100163.91;;;9.34;100.00
44359;BME280;30077;52.474;13.326;2023-02-18T13:07:00;100153.59;;;9.45;100.00
44359;BME280;30077;52.474;13.326;2023-02-18T13:17:11;100128.03;;;9.60;100.00
44359;BME280;30077;52.474;13.326;2023-02-18T13:22:13;100134.50;;;9.54;100.00
44359;BME280;30077;52.474;13.326;2023-02-18T13:27:32;100124.00;;;9.51;100.00
44359;BME280;30077;52.474;13.326;2023-02-18T13:32:37;100120.97;;;9.59;100.00
44359;BME280;30077;52.474;13.326;2023-02-18T13:37:53;100145.16;;;9.54;100.00
44359;BME280;30077;52.474;13.326;2023-02-18T13:48:25;100124.50;;;9.59;100.00
44359;BME280;30077;52.474;13.326;2023-02-18T13:53:27;100129.31;;;9.51;100.00
44359;BME280;30077;52.474;13.326;2023-02-18T14:08:44;100122.75;;;9.41;100.00
44359;BME280;30077;52.474;13.326;2023-02-18T14:18:56;100128.25;;;9.19;100.00
44359;BME280;30077;52.474;13.326;2023-02-18T14:23:58;100125.22;;;9.27;100.00
44359;BME280;30077;52.474;13.326;2023-02-18T14:29:00;100122.31;;;9.31;100.00
44359;BME280;30077;52.474;13.326;2023-02-18T14:34:09;100130.53;;;9.27;100.00
44359;BME280;30077;52.474;13.326;2023-02-18T14:39:27;100130.22;;;9.33;100.00
44359;BME280;30077;52.474;13.326;2023-02-18T14:44:42;100134.50;;;9.37;100.00
44359;BME280;30077;52.474;13.326;2023-02-18T14:49:53;100134.78;;;9.31;100.00
44359;BME280;30077;52.474;13.326;2023-02-18T14:54:54;100141.34;;;9.24;100.00
44359;BME280;30077;52.474;13.326;2023-02-18T14:59:58;100125.22;;;9.27;100.00
44359;BME280;30077;52.474;13.326;2023-02-18T15:05:09;100147.09;;;9.33;100.00
44359;BME280;30077;52.474;13.326;2023-02-18T15:10:12;100160.94;;;9.40;100.00
44359;BME280;30077;52.474;13.326;2023-02-18T15:15:13;100143.09;;;9.42;100.00
44359;BME280;30077;52.474;13.326;2023-02-18T15:20:15;100159.50;;;9.33;100.00
44359;BME280;30077;52.474;13.326;2023-02-18T15:25:15;100173.00;;;9.30;100.00
44359;BME280;30077;52.474;13.326;2023-02-18T15:35:17;100188.09;;;9.48;100.00
44359;BME280;30077;52.474;13.326;2023-02-18T15:40:17;100205.56;;;9.35;100.00
44359;BME280;30077;52.474;13.326;2023-02-18T15:45:18;100223.47;;;9.31;100.00
44359;BME280;30077;52.474;13.326;2023-02-18T15:50:21;100240.69;;;9.24;100.00
44359;BME280;30077;52.474;13.326;2023-02-18T15:55:25;100251.69;;;9.16;100.00
44359;BME280;30077;52.474;13.326;2023-02-18T16:00:27;100251.22;;;9.07;100.00
44359;BME280;30077;52.474;13.326;2023-02-18T16:05:28;100263.16;;;8.98;100.00
44359;BME280;30077;52.474;13.326;2023-02-18T16:15:36;100278.41;;;8.95;100.00
44359;BME280;30077;52.474;13.326;2023-02-18T16:20:37;100283.94;;;8.90;100.00
44359;BME280;30077;52.474;13.326;2023-02-18T16:30:37;100288.44;;;8.88;100.00
44359;BME280;30077;52.474;13.326;2023-02-18T16:35:40;100340.03;;;8.84;100.00
44359;BME280;30077;52.474;13.326;2023-02-18T16:40:42;100337.56;;;8.37;100.00
44359;BME280;30077;52.474;13.326;2023-02-18T16:45:43;100340.34;;;8.34;100.00
44359;BME280;30077;52.474;13.326;2023-02-18T16:50:44;100342.97;;;8.35;100.00
44359;BME280;30077;52.474;13.326;2023-02-18T16:55:44;100350.97;;;8.34;100.00
44359;BME280;30077;52.474;13.326;2023-02-18T17:00:45;100365.66;;;8.44;100.00
44359;BME280;30077;52.474;13.326;2023-02-18T17:05:45;100383.53;;;8.40;100.00
44359;BME280;30077;52.474;13.326;2023-02-18T17:10:46;100421.84;;;8.11;100.00
44359;BME280;30077;52.474;13.326;2023-02-18T17:15:47;100440.22;;;7.70;100.00
44359;BME280;30077;52.474;13.326;2023-02-18T17:20:49;100449.75;;;7.51;100.00
44359;BME280;30077;52.474;13.326;2023-02-18T17:25:50;100470.03;;;7.29;100.00
44359;BME280;30077;52.474;13.326;2023-02-18T17:30:52;100497.00;;;7.16;100.00
44359;BME280;30077;52.474;13.326;2023-02-18T17:35:55;100517.13;;;7.22;100.00
44359;BME280;30077;52.474;13.326;2023-02-18T17:40:55;100527.28;;;7.09;100.00
44359;BME280;30077;52.474;13.326;2023-02-18T17:45:56;100536.94;;;7.12;100.00
44359;BME280;30077;52.474;13.326;2023-02-18T17:50:56;100545.34;;;6.98;100.00
44359;BME280;30077;52.474;13.326;2023-02-18T17:55:57;100543.59;;;6.97;100.00
44359;BME280;30077;52.474;13.326;2023-02-18T18:00:57;100551.00;;;6.87;100.00
44359;BME280;30077;52.474;13.326;2023-02-18T18:05:57;100566.38;;;6.76;100.00
44359;BME280;30077;52.474;13.326;2023-02-18T18:10:58;100576.00;;;6.79;100.00
44359;BME280;30077;52.474;13.326;2023-02-18T18:15:59;100586.81;;;6.72;100.00
44359;BME280;30077;52.474;13.326;2023-02-18T18:20:59;100600.00;;;6.74;100.00
44359;BME280;30077;52.474;13.326;2023-02-18T18:26:00;100602.81;;;6.69;100.00
44359;BME280;30077;52.474;13.326;2023-02-18T18:31:00;100616.28;;;6.62;100.00
44359;BME280;30077;52.474;13.326;2023-02-18T18:36:01;100617.78;;;6.70;100.00
44359;BME280;30077;52.474;13.326;2023-02-18T18:41:01;100620.59;;;6.64;100.00
44359;BME280;30077;52.474;13.326;2023-02-18T18:46:01;100636.78;;;6.55;100.00
44359;BME280;30077;52.474;13.326;2023-02-18T18:51:01;100647.47;;;6.52;100.00
44359;BME280;30077;52.474;13.326;2023-02-18T18:56:03;100656.44;;;6.48;100.00
44359;BME280;30077;52.474;13.326;2023-02-18T19:01:04;100657.69;;;6.35;100.00
44359;BME280;30077;52.474;13.326;2023-02-18T19:06:05;100672.19;;;6.21;100.00
44359;BME280;30077;52.474;13.326;2023-02-18T19:11:05;100666.22;;;6.13;100.00
44359;BME280;30077;52.474;13.326;2023-02-18T19:16:11;100666.22;;;6.13;100.00
44359;BME280;30077;52.474;13.326;2023-02-18T19:21:13;100682.31;;;6.06;100.00
44359;BME280;30077;52.474;13.326;2023-02-18T19:26:14;100686.81;;;6.02;100.00
44359;BME280;30077;52.474;13.326;2023-02-18T19:31:15;100685.00;;;6.04;100.00
44359;BME280;30077;52.474;13.326;2023-02-18T19:36:15;100703.75;;;5.96;100.00
44359;BME280;30077;52.474;13.326;2023-02-18T19:41:16;100707.25;;;5.97;100.00
44359;BME280;30077;52.474;13.326;2023-02-18T19:46:18;100712.63;;;5.94;100.00
44359;BME280;30077;52.474;13.326;2023-02-18T19:51:18;100709.13;;;5.93;100.00
44359;BME280;30077;52.474;13.326;2023-02-18T19:56:20;100712.84;;;5.85;100.00
44359;BME280;30077;52.474;13.326;2023-02-18T20:01:20;100712.91;;;5.82;100.00
44359;BME280;30077;52.474;13.326;2023-02-18T20:06:20;100711.25;;;5.77;100.00
44359;BME280;30077;52.474;13.326;2023-02-18T20:11:20;100715.66;;;5.77;100.00
44359;BME280;30077;52.474;13.326;2023-02-18T20:16:21;100720.94;;;5.78;100.00
44359;BME280;30077;52.474;13.326;2023-02-18T20:21:21;100727.13;;;5.77;100.00
44359;BME280;30077;52.474;13.326;2023-02-18T20:26:22;100731.38;;;5.85;100.00
44359;BME280;30077;52.474;13.326;2023-02-18T20:31:23;100733.91;;;5.89;100.00
44359;BME280;30077;52.474;13.326;2023-02-18T20:36:23;100730.41;;;5.89;100.00
44359;BME280;30077;52.474;13.326;2023-02-18T20:41:23;100736.47;;;5.94;100.00
44359;BME280;30077;52.474;13.326;2023-02-18T20:46:23;100740.88;;;5.92;100.00
44359;BME280;30077;52.474;13.326;2023-02-18T20:51:24;100748.94;;;5.89;100.00
44359;BME280;30077;52.474;13.326;2023-02-18T20:56:24;100749.69;;;5.94;100.00
44359;BME280;30077;52.474;13.326;2023-02-18T21:01:24;100747.91;;;5.96;100.00
44359;BME280;30077;52.474;13.326;2023-02-18T21:06:24;100755.91;;;5.91;100.00
44359;BME280;30077;52.474;13.326;2023-02-18T21:11:25;100759.41;;;5.92;100.00
44359;BME280;30077;52.474;13.326;2023-02-18T21:16:26;100755.00;;;5.94;100.00
44359;BME280;30077;52.474;13.326;2023-02-18T21:21:26;100762.16;;;5.89;100.00
44359;BME280;30077;52.474;13.326;2023-02-18T21:26:26;100771.09;;;5.85;100.00
44359;BME280;30077;52.474;13.326;2023-02-18T21:31:29;100771.97;;;5.84;100.00
44359;BME280;30077;52.474;13.326;2023-02-18T21:36:30;100767.59;;;5.83;100.00
44359;BME280;30077;52.474;13.326;2023-02-18T21:41:32;100763.16;;;5.83;100.00
44359;BME280;30077;52.474;13.326;2023-02-18T21:46:34;100771.22;;;5.78;100.00
44359;BME280;30077;52.474;13.326;2023-02-18T21:51:39;100770.25;;;5.83;100.00
44359;BME280;30077;52.474;13.326;2023-02-18T21:56:58;100774.78;;;5.77;100.00
44359;BME280;30077;52.474;13.326;2023-02-18T22:01:59;100774.94;;;5.71;100.00
44359;BME280;30077;52.474;13.326;2023-02-18T22:07:00;100782.88;;;5.70;100.00
44359;BME280;30077;52.474;13.326;2023-02-18T22:12:01;100781.28;;;5.63;100.00
44359;BME280;30077;52.474;13.326;2023-02-18T22:17:01;100789.22;;;5.63;100.00
44359;BME280;30077;52.474;13.326;2023-02-18T22:22:02;100801.53;;;5.65;100.00
44359;BME280;30077;52.474;13.326;2023-02-18T22:27:02;100794.50;;;5.64;100.00
44359;BME280;30077;52.474;13.326;2023-02-18T22:32:02;100794.44;;;5.67;100.00
44359;BME280;30077;52.474;13.326;2023-02-18T22:37:03;100799.78;;;5.64;100.00
44359;BME280;30077;52.474;13.326;2023-02-18T22:42:03;100800.66;;;5.65;100.00
44359;BME280;30077;52.474;13.326;2023-02-18T22:47:03;100794.63;;;5.58;100.00
44359;BME280;30077;52.474;13.326;2023-02-18T22:52:03;100786.09;;;5.45;100.00
44359;BME280;30077;52.474;13.326;2023-02-18T22:57:03;100792.38;;;5.41;100.00
44359;BME280;30077;52.474;13.326;2023-02-18T23:02:07;100792.69;;;5.26;100.00
44359;BME280;30077;52.474;13.326;2023-02-18T23:07:07;100783.94;;;5.22;100.00
44359;BME280;30077;52.474;13.326;2023-02-18T23:12:07;100788.34;;;5.22;100.00
44359;BME280;30077;52.474;13.326;2023-02-18T23:17:07;100784.66;;;5.30;100.00
44359;BME280;30077;52.474;13.326;2023-02-18T23:22:17;100781.16;;;5.28;100.00
44359;BME280;30077;52.474;13.326;2023-02-18T23:27:18;100784.84;;;5.21;100.00
44359;BME280;30077;52.474;13.326;2023-02-18T23:32:18;100779.56;;;5.21;100.00
44359;BME280;30077;52.474;13.326;2023-02-18T23:37:18;100790.94;;;5.25;100.00
44359;BME280;30077;52.474;13.326;2023-02-18T23:42:38;100784.66;;;5.30;100.00
44359;BME280;30077;52.474;13.326;2023-02-18T23:47:39;100781.97;;;5.32;100.00
44359;BME280;30077;52.474;13.326;2023-02-18T23:52:39;100779.38;;;5.30;100.00
44359;BME280;30077;52.474;13.326;2023-02-18T23:57:39;100788.06;;;5.36;100.00
